CheckWX is a tool to help pilots better visualize weather data.  It is not intended as a substitute for an official pre-flight weather briefing.

17:23:51 UTC

LFRJ TAF
Landivisiau Air Base Airport
Landivisiau, France
TAF LFRJ 181400Z 1815/1824 05006KT CAVOK TEMPO 1815/1824 5000 RA BKN050TCU OVC090 PROB30 TEMPO 1815/1818 TSRA SCT050CB TEMPO 1821/1824 4000 RA SCT050CB OVC080 BECMG 1821/1823 SCT005

Jun-18@
15:00 UTC

Jun-18 @ 15:00 UTC

Jun-18@
21:00 UTC

Jun-18 @ 21:00 UTC

TAF LFRJ 181400Z 1815/1824 05006KT CAVOK
Wind
  • 050° at 6 KTS
Conditions
No significant weather
Cloud Levels
  • No significant clouds

Jun-18@
15:00 UTC

Jun-18 @ 15:00 UTC

Jun-18@
18:00 UTC

Jun-18 @ 18:00 UTC

PROB30 TEMPO 1815/1818 TSRA SCT050CB

Temporary - 30% Likelihood

Temporary - 30% Likelihood during this time.

Conditions
Thunderstorm, Rain
Cloud Levels
  • Scattered at 5,000' AGL

Jun-18@
15:00 UTC

Jun-18 @ 15:00 UTC

Jun-19@
00:00 UTC

Jun-19 @ 00:00 UTC

TEMPO 1815/1824 5000 RA BKN050TCU OVC090

Temporary

Temporary Changes expected for less than half the time period

Conditions
Rain
Cloud Levels
  • Broken at 5,000' AGL
  • Overcast at 9,000' AGL

Jun-18@
21:00 UTC

Jun-18 @ 21:00 UTC

Jun-19@
00:00 UTC

Jun-19 @ 00:00 UTC

TEMPO 1821/1824 4000 RA SCT050CB OVC080

Temporary

Temporary Changes expected for less than half the time period

Conditions
Rain
Cloud Levels
  • Scattered at 5,000' AGL
  • Overcast at 8,000' AGL

Jun-18@
21:00 UTC

Jun-18 @ 21:00 UTC

Jun-19@
00:00 UTC

Jun-19 @ 00:00 UTC

BECMG 1821/1823 SCT005

Becoming

Becoming Conditions expected by Tue, Jun 18, 2019 @ 23:00 UTC

Wind
  • 050° at 6 KTS
Conditions
No significant weather
Cloud Levels
  • Scattered at 500' AGL